Time;durP1;ratioP1;P1;durP2;ratioP2;P2;SDS_P1;SDS_P2;PMS_P1;PMS_P2;Temp;Humidity;BMP_temperature;BMP_pressure;BME280_temperature;BME280_humidity;BME280_pressure;Samples;Min_cycle;Max_cycle;Signal;HPM_P1;HPM_P2
2022/06/26 00:01:57;;;;;;;9.05;2.78;;;14.30;99.90;;;;;;5014415;28;20042;-55
2022/06/26 00:04:24;;;;;;;6.65;2.63;;;14.30;99.90;;;;;;5016754;28;20096;-54
2022/06/26 00:06:51;;;;;;;11.60;2.45;;;14.30;99.90;;;;;;5019682;28;20081;-55
2022/06/26 00:09:18;;;;;;;5.57;2.55;;;14.30;99.90;;;;;;5014562;28;20066;-50
2022/06/26 00:11:44;;;;;;;6.85;2.50;;;14.20;99.90;;;;;;5014289;28;20045;-52
2022/06/26 00:14:11;;;;;;;10.07;2.50;;;14.20;99.90;;;;;;5014044;28;20049;-52
2022/06/26 00:16:38;;;;;;;7.60;2.47;;;14.20;99.90;;;;;;5012730;28;20061;-48
2022/06/26 00:19:05;;;;;;;7.70;2.47;;;14.20;99.90;;;;;;5014268;28;20396;-52
2022/06/26 00:21:31;;;;;;;13.55;2.97;;;14.10;99.90;;;;;;5014811;28;20045;-48
2022/06/26 00:23:58;;;;;;;11.32;3.00;;;14.10;99.90;;;;;;5009665;28;20509;-52
2022/06/26 00:26:25;;;;;;;8.20;2.22;;;14.10;99.90;;;;;;5021578;28;20391;-54
2022/06/26 00:28:53;;;;;;;5.65;2.35;;;14.00;99.90;;;;;;5013919;28;20046;-53
2022/06/26 00:31:20;;;;;;;8.10;2.80;;;14.00;99.90;;;;;;5013855;28;20046;-55
2022/06/26 00:33:46;;;;;;;6.68;2.10;;;14.00;99.90;;;;;;5021729;28;20045;-48
2022/06/26 00:36:13;;;;;;;7.47;2.33;;;14.00;99.90;;;;;;5030542;28;20029;-50
2022/06/26 00:38:40;;;;;;;10.38;2.70;;;14.00;99.90;;;;;;5017498;28;20421;-51
2022/06/26 00:41:07;;;;;;;9.82;2.78;;;14.00;99.90;;;;;;5012954;28;20482;-53
2022/06/26 00:43:34;;;;;;;10.43;2.60;;;14.00;99.90;;;;;;5016342;28;20041;-53
2022/06/26 00:46:00;;;;;;;5.47;2.33;;;13.90;99.90;;;;;;5025501;28;20042;-51
2022/06/26 00:48:27;;;;;;;10.23;2.60;;;13.90;99.90;;;;;;5021110;28;20072;-54
2022/06/26 00:50:54;;;;;;;8.65;2.60;;;13.90;99.90;;;;;;5026760;28;20056;-54
2022/06/26 00:53:21;;;;;;;9.52;3.00;;;13.90;99.90;;;;;;5032814;28;20044;-49
2022/06/26 00:55:48;;;;;;;7.68;2.55;;;13.80;99.90;;;;;;5030848;28;20046;-50
2022/06/26 00:58:15;;;;;;;6.40;2.60;;;13.80;99.90;;;;;;5032585;28;20095;-56
2022/06/26 01:00:42;;;;;;;6.85;2.03;;;13.80;99.90;;;;;;5018775;28;20045;-48
2022/06/26 01:03:08;;;;;;;8.77;2.70;;;13.70;99.90;;;;;;5012210;28;20088;-49
2022/06/26 01:05:35;;;;;;;8.75;3.22;;;13.70;99.90;;;;;;5013891;28;20456;-53
2022/06/26 01:08:03;;;;;;;7.40;2.60;;;13.70;99.90;;;;;;5013591;28;20050;-53
2022/06/26 01:10:30;;;;;;;9.05;2.53;;;13.70;99.90;;;;;;5014924;28;20072;-47
2022/06/26 01:12:57;;;;;;;8.57;2.58;;;13.70;99.90;;;;;;5017597;28;20050;-52
2022/06/26 01:15:23;;;;;;;6.22;2.40;;;13.70;99.90;;;;;;5016142;28;20053;-48
2022/06/26 01:17:51;;;;;;;8.60;2.50;;;13.70;99.90;;;;;;5014283;28;20069;-55
2022/06/26 01:20:17;;;;;;;8.10;2.40;;;13.60;99.90;;;;;;5017986;28;20037;-50
2022/06/26 01:22:44;;;;;;;7.55;2.17;;;13.60;99.90;;;;;;5036337;28;20056;-54
2022/06/26 01:25:11;;;;;;;5.03;2.38;;;13.60;99.90;;;;;;5023129;28;20056;-49
2022/06/26 01:27:38;;;;;;;9.20;2.60;;;13.60;99.90;;;;;;5016134;28;20073;-53
2022/06/26 01:30:05;;;;;;;6.72;2.33;;;13.60;99.90;;;;;;5017080;28;20120;-52
2022/06/26 01:32:32;;;;;;;9.90;2.60;;;13.50;99.90;;;;;;5015890;28;20041;-52
2022/06/26 01:34:59;;;;;;;5.60;2.05;;;13.50;99.90;;;;;;5016013;28;20041;-54
2022/06/26 01:37:26;;;;;;;6.05;2.10;;;13.50;99.90;;;;;;5022478;28;20081;-55
2022/06/26 01:39:53;;;;;;;7.70;2.10;;;13.50;99.90;;;;;;5030437;28;20049;-52
2022/06/26 01:42:20;;;;;;;8.68;2.03;;;13.50;99.90;;;;;;5025913;28;20037;-55
2022/06/26 01:44:46;;;;;;;7.55;2.30;;;13.40;99.90;;;;;;5023016;28;20054;-53
2022/06/26 01:47:13;;;;;;;8.45;2.95;;;13.40;99.90;;;;;;5016772;28;20103;-52
2022/06/26 01:49:40;;;;;;;7.43;2.10;;;13.40;99.90;;;;;;5015230;28;20392;-53
2022/06/26 01:52:07;;;;;;;10.55;2.72;;;13.40;99.90;;;;;;5015082;28;20042;-53
2022/06/26 01:54:34;;;;;;;6.55;2.35;;;13.40;99.90;;;;;;5020268;28;20072;-51
2022/06/26 01:57:01;;;;;;;5.47;2.10;;;13.30;99.90;;;;;;5020473;28;20038;-51
2022/06/26 01:59:28;;;;;;;7.13;2.15;;;13.30;99.90;;;;;;5024053;28;20041;-54
2022/06/26 02:01:54;;;;;;;7.63;2.30;;;13.30;99.90;;;;;;5027663;28;20073;-54
2022/06/26 02:04:24;;;;;;;8.63;2.47;;;13.20;99.90;;;;;;5021073;28;20077;-51
2022/06/26 02:06:51;;;;;;;7.30;2.08;;;13.20;99.90;;;;;;5015543;28;20461;-50
2022/06/26 02:14:52;;;;;;;9.00;2.13;;;13.10;99.90;;;;;;5020564;28;20509;-52
2022/06/26 02:17:21;;;;;;;5.80;2.30;;;13.10;99.90;;;;;;5042277;28;20548;-52
2022/06/26 02:19:48;;;;;;;6.15;2.30;;;13.10;99.90;;;;;;5019706;28;20063;-53
2022/06/26 02:22:15;;;;;;;6.15;2.28;;;13.10;99.90;;;;;;5012666;28;20081;-56
2022/06/26 02:24:44;;;;;;;7.43;2.22;;;13.10;99.90;;;;;;5033054;28;20049;-51
2022/06/26 02:27:11;;;;;;;8.45;2.47;;;13.10;99.90;;;;;;5030191;28;20140;-53
2022/06/26 02:29:38;;;;;;;7.70;2.67;;;13.00;99.90;;;;;;5014583;28;20046;-50
2022/06/26 02:32:05;;;;;;;6.90;2.30;;;13.00;99.90;;;;;;5018216;28;20047;-50
2022/06/26 02:34:32;;;;;;;7.50;2.20;;;13.00;99.90;;;;;;5012210;28;20108;-54
2022/06/26 02:36:59;;;;;;;7.05;2.70;;;13.00;99.90;;;;;;5013070;28;20149;-51
2022/06/26 02:39:27;;;;;;;6.93;2.30;;;13.00;99.90;;;;;;5012305;28;20065;-52
2022/06/26 02:41:54;;;;;;;6.93;2.30;;;13.00;99.90;;;;;;5028503;28;20403;-50
2022/06/26 02:44:21;;;;;;;6.90;2.30;;;13.00;99.90;;;;;;5014461;28;20053;-49
2022/06/26 02:46:48;;;;;;;6.32;2.60;;;12.90;99.90;;;;;;5026708;28;20148;-52
2022/06/26 02:49:15;;;;;;;9.20;2.78;;;12.90;99.90;;;;;;5018917;28;20150;-55
2022/06/26 02:51:43;;;;;;;11.70;2.33;;;12.90;99.90;;;;;;5018953;28;20033;-49
2022/06/26 02:54:10;;;;;;;7.07;2.25;;;12.90;99.90;;;;;;5000967;28;20096;-47
2022/06/26 02:56:37;;;;;;;6.22;2.38;;;12.90;99.90;;;;;;5013785;28;20042;-50
2022/06/26 02:59:05;;;;;;;8.15;2.20;;;12.90;99.90;;;;;;5014981;28;20120;-50
2022/06/26 03:01:32;;;;;;;6.38;2.40;;;12.90;99.90;;;;;;5026548;28;20064;-53
2022/06/26 03:04:14;;;;;;;6.00;2.33;;;12.90;99.90;;;;;;5015118;28;20042;-51
2022/06/26 03:06:41;;;;;;;7.15;2.70;;;12.90;99.90;;;;;;5015605;28;20103;-48
2022/06/26 03:09:08;;;;;;;7.47;2.30;;;12.80;99.90;;;;;;5018868;28;20493;-55
2022/06/26 03:11:35;;;;;;;10.02;2.55;;;12.80;99.90;;;;;;5019479;28;20038;-48
2022/06/26 03:14:01;;;;;;;7.43;2.63;;;12.80;99.90;;;;;;5014511;28;20378;-56
2022/06/26 03:16:28;;;;;;;8.93;2.90;;;12.80;99.90;;;;;;5024267;28;20049;-51
2022/06/26 03:18:56;;;;;;;7.47;2.40;;;12.70;99.90;;;;;;5012705;28;20117;-57
2022/06/26 03:21:23;;;;;;;6.70;2.60;;;12.70;99.90;;;;;;5022084;28;20417;-60
2022/06/26 03:24:02;;;;;;;5.60;2.10;;;12.70;99.90;;;;;;5012020;28;20038;-51
2022/06/26 03:26:30;;;;;;;6.10;2.35;;;12.70;99.90;;;;;;5014258;28;20497;-52
2022/06/26 03:28:57;;;;;;;9.02;2.90;;;12.70;99.90;;;;;;5014585;28;20049;-52
2022/06/26 03:31:25;;;;;;;6.10;2.33;;;12.70;99.90;;;;;;5012291;28;20046;-51
2022/06/26 03:33:52;;;;;;;9.60;2.30;;;12.70;99.90;;;;;;5011596;28;20524;-51
2022/06/26 03:36:19;;;;;;;7.07;2.38;;;12.70;99.90;;;;;;5024914;28;20060;-52
2022/06/26 03:38:47;;;;;;;7.93;2.50;;;12.70;99.90;;;;;;5017505;28;20397;-54
2022/06/26 03:41:14;;;;;;;7.85;2.53;;;12.70;99.90;;;;;;5010634;28;20057;-54
2022/06/26 03:43:40;;;;;;;9.93;2.60;;;12.60;99.90;;;;;;5018459;28;20037;-55
2022/06/26 03:46:07;;;;;;;6.93;2.35;;;12.60;99.90;;;;;;5020594;28;20049;-50
2022/06/26 03:48:34;;;;;;;10.10;2.30;;;12.60;99.90;;;;;;5017493;28;20136;-53
2022/06/26 03:51:01;;;;;;;5.65;2.10;;;12.60;99.90;;;;;;5008689;28;20046;-53
2022/06/26 03:53:32;;;;;;;8.13;2.38;;;12.60;99.90;;;;;;5025488;28;20046;-51
2022/06/26 03:56:00;;;;;;;5.63;2.33;;;12.60;99.90;;;;;;5011157;28;20050;-51
2022/06/26 03:58:27;;;;;;;6.38;2.28;;;12.60;99.90;;;;;;5011220;28;20034;-51
2022/06/26 04:00:54;;;;;;;4.95;2.10;;;12.60;99.90;;;;;;5013330;28;20064;-46
2022/06/26 04:03:21;;;;;;;7.13;2.40;;;12.50;99.90;;;;;;5023887;28;20121;-51
2022/06/26 04:05:48;;;;;;;7.75;2.40;;;12.60;99.90;;;;;;5010901;28;20037;-52
2022/06/26 04:08:15;;;;;;;4.55;2.30;;;12.50;99.90;;;;;;5011608;28;20129;-50
2022/06/26 04:10:45;;;;;;;7.43;2.38;;;12.50;99.90;;;;;;5020753;28;20056;-54
2022/06/26 04:13:27;;;;;;;6.57;2.40;;;12.60;99.90;;;;;;5031876;28;20140;-51
2022/06/26 04:15:55;;;;;;;9.63;2.60;;;12.60;99.90;;;;;;5020913;28;20058;-52
2022/06/26 04:18:21;;;;;;;7.45;2.40;;;12.60;99.90;;;;;;5011161;28;20084;-51
2022/06/26 04:20:53;;;;;;;5.68;2.42;;;12.60;99.90;;;;;;5018343;28;20037;-53
2022/06/26 04:23:20;;;;;;;8.43;2.60;;;12.60;99.90;;;;;;5010499;28;20073;-51
2022/06/26 04:25:50;;;;;;;11.02;3.17;;;12.60;99.90;;;;;;4992187;28;20050;-48
2022/06/26 04:28:21;;;;;;;7.45;2.83;;;12.60;99.90;;;;;;5006374;28;20505;-51
2022/06/26 04:30:48;;;;;;;7.13;3.03;;;12.60;99.90;;;;;;5011493;28;20057;-50
2022/06/26 04:33:15;;;;;;;9.05;2.53;;;12.70;99.90;;;;;;5011077;28;20038;-52
2022/06/26 04:35:44;;;;;;;10.02;2.50;;;12.70;99.90;;;;;;5012970;28;20050;-49
2022/06/26 04:38:11;;;;;;;7.05;2.53;;;12.90;99.90;;;;;;5014742;28;20492;-47
2022/06/26 04:40:41;;;;;;;7.20;2.25;;;13.10;99.90;;;;;;5020658;28;20054;-57
2022/06/26 04:43:08;;;;;;;7.00;2.50;;;13.20;99.90;;;;;;5010359;28;20104;-50
2022/06/26 04:45:42;;;;;;;5.10;2.30;;;13.50;99.90;;;;;;5009660;28;20061;-50
2022/06/26 04:48:08;;;;;;;6.75;1.98;;;13.60;99.90;;;;;;5016610;28;20069;-49
2022/06/26 04:50:35;;;;;;;9.07;2.50;;;13.80;99.90;;;;;;5017177;28;20045;-52
2022/06/26 04:53:03;;;;;;;7.65;2.40;;;14.00;99.90;;;;;;5013052;28;20468;-52
2022/06/26 04:55:30;;;;;;;7.63;2.25;;;14.10;99.90;;;;;;5023166;28;20128;-53
2022/06/26 04:57:56;;;;;;;6.75;2.10;;;14.30;99.90;;;;;;5023089;28;20042;-50
2022/06/26 05:00:24;;;;;;;10.52;2.30;;;14.40;99.90;;;;;;5031349;28;20046;-52
2022/06/26 05:02:55;;;;;;;5.07;2.00;;;14.50;99.90;;;;;;5019235;28;20469;-56
2022/06/26 05:05:44;;;;;;;7.70;2.30;;;14.60;99.90;;;;;;5013619;28;20045;-52
2022/06/26 05:08:33;;;;;;;6.68;2.25;;;14.80;99.90;;;;;;5011368;28;20050;-49
2022/06/26 05:11:01;;;;;;;7.00;1.95;;;14.90;99.90;;;;;;5012208;28;20049;-50
2022/06/26 05:13:31;;;;;;;5.95;1.73;;;15.00;99.90;;;;;;5012420;28;20452;-52
2022/06/26 05:16:09;;;;;;;8.55;1.85;;;15.20;99.90;;;;;;5012297;28;20052;-53
2022/06/26 05:18:37;;;;;;;6.72;1.55;;;15.30;99.90;;;;;;5012143;28;20073;-51
2022/06/26 05:21:04;;;;;;;7.20;2.03;;;15.30;99.90;;;;;;5013541;28;20141;-54
2022/06/26 05:23:36;;;;;;;6.13;1.92;;;15.50;99.90;;;;;;5013294;28;20064;-50
2022/06/26 05:26:07;;;;;;;5.28;1.70;;;15.60;99.80;;;;;;5030960;28;20041;-54
2022/06/26 05:28:35;;;;;;;6.13;1.60;;;15.70;99.40;;;;;;5030838;28;20500;-51
2022/06/26 05:31:02;;;;;;;10.48;1.90;;;15.80;99.20;;;;;;5030785;28;20072;-53
2022/06/26 05:33:34;;;;;;;6.57;1.60;;;16.00;99.20;;;;;;5030903;28;20050;-52
2022/06/26 05:36:00;;;;;;;6.07;1.42;;;16.10;98.90;;;;;;5003972;28;20069;-50
2022/06/26 05:38:27;;;;;;;5.13;1.55;;;16.20;98.30;;;;;;5030590;28;20167;-47
2022/06/26 05:40:55;;;;;;;6.40;1.42;;;16.20;97.80;;;;;;5030893;28;20497;-49
2022/06/26 05:43:22;;;;;;;6.97;1.40;;;16.30;97.70;;;;;;5029386;28;20037;-51
2022/06/26 05:45:51;;;;;;;4.82;1.42;;;16.40;97.70;;;;;;5030919;28;20571;-49
2022/06/26 05:48:24;;;;;;;6.72;1.20;;;16.40;97.30;;;;;;5006978;28;20126;-52
2022/06/26 05:51:17;;;;;;;4.90;1.27;;;16.40;97.00;;;;;;5011971;28;20057;-53
2022/06/26 05:54:01;;;;;;;6.43;1.40;;;16.50;97.20;;;;;;5011937;28;20445;-52
2022/06/26 05:56:37;;;;;;;6.05;1.40;;;16.50;97.10;;;;;;5012762;28;20070;-51
2022/06/26 05:59:16;;;;;;;3.70;1.48;;;16.60;97.00;;;;;;5015302;28;20042;-55
2022/06/26 06:02:01;;;;;;;;;;;16.80;96.40;;;;;;5017337;28;20056;-54
2022/06/26 06:04:30;;;;;;;6.95;1.50;;;16.80;96.60;;;;;;5009762;28;20340;-52
2022/06/26 06:07:00;;;;;;;6.40;1.25;;;17.00;96.20;;;;;;5015479;28;20038;-49
2022/06/26 06:09:27;;;;;;;5.55;1.20;;;17.10;95.70;;;;;;5016638;28;20038;-51
2022/06/26 06:11:54;;;;;;;7.15;1.50;;;17.00;95.60;;;;;;5015258;28;20046;-54
2022/06/26 06:14:21;;;;;;;4.28;1.50;;;17.00;95.50;;;;;;5015167;28;20045;-51
2022/06/26 06:16:49;;;;;;;5.68;1.45;;;17.00;95.50;;;;;;5015078;28;20048;-48
2022/06/26 06:19:16;;;;;;;5.70;1.63;;;16.90;95.10;;;;;;5017876;28;20049;-51
2022/06/26 06:21:44;;;;;;;5.15;1.50;;;16.70;95.60;;;;;;5018262;28;20169;-55
2022/06/26 06:24:11;;;;;;;6.30;1.52;;;16.70;95.40;;;;;;5033737;28;20436;-52
2022/06/26 06:26:38;;;;;;;5.85;1.20;;;16.60;95.60;;;;;;5033914;28;20037;-54
2022/06/26 06:29:25;;;;;;;6.03;1.17;;;16.50;95.80;;;;;;5016340;28;20092;-54
2022/06/26 06:31:52;;;;;;;6.80;1.50;;;16.40;95.90;;;;;;5008441;28;20038;-53
2022/06/26 06:34:22;;;;;;;7.25;1.67;;;16.30;96.00;;;;;;5022185;28;20041;-56
2022/06/26 06:36:50;;;;;;;4.50;1.40;;;16.20;96.20;;;;;;5011859;28;20050;-49
2022/06/26 06:39:17;;;;;;;8.05;1.73;;;16.20;96.30;;;;;;5014452;28;20104;-49
2022/06/26 06:41:43;;;;;;;5.70;1.48;;;16.20;96.50;;;;;;5009478;28;20523;-50
2022/06/26 06:44:12;;;;;;;5.43;1.42;;;16.20;96.40;;;;;;5021321;28;20489;-53
2022/06/26 06:47:12;;;;;;;7.70;1.73;;;16.30;96.10;;;;;;5013445;28;20129;-53
2022/06/26 06:49:58;;;;;;;7.57;1.30;;;16.20;96.20;;;;;;5015645;28;20060;-54
2022/06/26 06:52:26;;;;;;;5.05;1.50;;;16.20;96.20;;;;;;5015757;28;20113;-49
2022/06/26 06:54:53;;;;;;;9.98;1.50;;;16.20;96.20;;;;;;5011025;28;20100;-48
2022/06/26 06:57:20;;;;;;;8.45;1.80;;;16.20;96.20;;;;;;5007854;28;20038;-52
2022/06/26 06:59:46;;;;;;;10.68;1.98;;;16.20;96.30;;;;;;5027156;28;20046;-54
2022/06/26 07:02:13;;;;;;;10.98;1.83;;;16.20;96.30;;;;;;5014377;28;20049;-54
2022/06/26 07:04:40;;;;;;;7.07;1.38;;;16.20;96.10;;;;;;5014396;28;20084;-47
2022/06/26 07:07:07;;;;;;;10.40;1.70;;;16.20;96.10;;;;;;5013836;28;20046;-47
2022/06/26 07:09:34;;;;;;;9.60;1.60;;;16.30;96.10;;;;;;5014206;28;20501;-58
2022/06/26 07:12:00;;;;;;;5.38;1.38;;;16.40;96.10;;;;;;5014105;28;20046;-47
2022/06/26 07:14:27;;;;;;;11.40;1.92;;;16.40;96.00;;;;;;5015269;28;20050;-51
2022/06/26 07:16:54;;;;;;;12.70;2.58;;;16.50;95.60;;;;;;5015249;28;20051;-53
2022/06/26 07:19:21;;;;;;;7.85;1.90;;;16.60;95.60;;;;;;5013907;28;20134;-48
2022/06/26 07:21:48;;;;;;;10.80;2.20;;;16.70;96.00;;;;;;5013965;28;20409;-52
2022/06/26 07:24:15;;;;;;;10.32;2.40;;;16.90;94.90;;;;;;5013747;28;20092;-50
2022/06/26 07:26:58;;;;;;;7.68;1.30;;;17.10;94.80;;;;;;5013842;28;20050;-53
2022/06/26 07:29:25;;;;;;;8.95;2.05;;;17.30;93.90;;;;;;5013926;28;20046;-51
2022/06/26 07:31:52;;;;;;;8.63;1.77;;;17.60;93.80;;;;;;5013696;28;20559;-54
2022/06/26 07:34:23;;;;;;;12.27;2.47;;;17.80;93.80;;;;;;5010579;28;20130;-53
2022/06/26 07:36:50;;;;;;;7.88;1.52;;;17.90;93.30;;;;;;5010498;28;20049;-51
2022/06/26 07:39:18;;;;;;;8.68;1.90;;;18.10;93.20;;;;;;5013230;28;20050;-58
2022/06/26 07:41:45;;;;;;;6.53;1.58;;;18.20;92.10;;;;;;5013446;28;20050;-56
2022/06/26 07:44:11;;;;;;;5.90;1.63;;;18.00;90.90;;;;;;5013508;28;20061;-49
2022/06/26 07:46:38;;;;;;;6.13;1.33;;;17.90;91.20;;;;;;5007040;28;20069;-52
2022/06/26 07:49:07;;;;;;;6.95;1.50;;;17.80;91.00;;;;;;5020944;28;20572;-51
2022/06/26 07:51:34;;;;;;;6.47;1.60;;;17.80;91.10;;;;;;5013269;28;20058;-54
2022/06/26 07:54:01;;;;;;;8.40;2.08;;;17.80;90.70;;;;;;5007955;28;20378;-51
2022/06/26 07:56:28;;;;;;;9.07;1.40;;;17.80;90.40;;;;;;5008001;28;20044;-55
2022/06/26 07:58:54;;;;;;;9.20;1.98;;;17.70;90.70;;;;;;5014652;28;20050;-52
2022/06/26 08:01:24;;;;;;;8.70;1.77;;;17.50;91.00;;;;;;5013300;28;20042;-51
2022/06/26 08:03:51;;;;;;;7.80;1.52;;;17.40;91.30;;;;;;5033579;28;20040;-53
2022/06/26 08:06:19;;;;;;;6.20;1.58;;;17.40;91.50;;;;;;5023647;28;20043;-51
2022/06/26 08:08:46;;;;;;;9.38;1.80;;;17.40;91.60;;;;;;5033239;28;20041;-51
2022/06/26 08:11:13;;;;;;;8.43;1.98;;;17.30;91.20;;;;;;5033230;28;20050;-48
2022/06/26 08:13:40;;;;;;;9.32;2.10;;;17.30;91.20;;;;;;5033192;28;20037;-53
2022/06/26 08:16:06;;;;;;;9.30;2.10;;;17.30;91.10;;;;;;5033153;28;20045;-52
2022/06/26 08:18:33;;;;;;;7.53;1.63;;;17.20;91.60;;;;;;5032904;28;20124;-51
2022/06/26 08:23:46;;;;;;;;;;;17.00;91.40;;;;;;5033532;28;20045;-48
2022/06/26 08:26:12;;;;;;;8.73;1.83;;;16.90;91.50;;;;;;5033067;28;19925;-53
2022/06/26 08:28:39;;;;;;;10.70;1.80;;;16.90;91.90;;;;;;5033059;28;20053;-51
2022/06/26 08:31:06;;;;;;;10.18;1.75;;;17.00;92.10;;;;;;5032871;28;20042;-49
2022/06/26 08:33:33;;;;;;;6.53;1.70;;;17.00;91.90;;;;;;5021750;28;20049;-56
2022/06/26 08:35:59;;;;;;;5.93;1.60;;;17.10;92.20;;;;;;5012814;28;20042;-54
2022/06/26 08:38:27;;;;;;;8.15;1.80;;;17.10;91.70;;;;;;5012432;28;20054;-50
2022/06/26 08:40:54;;;;;;;9.00;1.67;;;17.20;91.60;;;;;;5009354;28;20042;-53
2022/06/26 08:43:21;;;;;;;8.13;1.80;;;17.30;90.40;;;;;;5013833;28;20045;-54
2022/06/26 08:45:47;;;;;;;6.63;1.88;;;17.30;90.20;;;;;;5013992;28;20088;-52
2022/06/26 08:48:14;;;;;;;7.63;1.80;;;17.40;90.20;;;;;;5013777;28;20493;-55
2022/06/26 08:50:41;;;;;;;8.65;1.63;;;17.50;90.00;;;;;;5013773;28;20085;-54
2022/06/26 08:53:08;;;;;;;7.57;1.45;;;17.50;89.90;;;;;;5013645;28;20037;-51
2022/06/26 08:55:35;;;;;;;9.00;1.90;;;17.60;89.40;;;;;;5008109;28;20091;-50
2022/06/26 08:58:01;;;;;;;7.45;1.40;;;17.70;89.50;;;;;;5014034;28;20038;-45
2022/06/26 09:00:30;;;;;;;5.93;1.27;;;17.70;89.80;;;;;;5013663;28;20456;-53
2022/06/26 09:02:56;;;;;;;7.10;1.77;;;17.80;88.20;;;;;;5013826;28;20104;-51
2022/06/26 09:05:23;;;;;;;6.20;1.50;;;17.90;88.00;;;;;;5013620;28;20077;-50
2022/06/26 09:07:51;;;;;;;6.70;1.63;;;17.90;87.80;;;;;;5013670;28;20038;-52
2022/06/26 09:10:18;;;;;;;7.30;1.30;;;17.90;87.50;;;;;;5013657;28;20050;-54
2022/06/26 09:12:44;;;;;;;8.82;2.00;;;18.00;89.00;;;;;;5013818;28;20046;-54
2022/06/26 09:15:11;;;;;;;8.25;1.85;;;18.10;88.20;;;;;;5013462;28;20378;-51
2022/06/26 09:17:38;;;;;;;10.75;1.90;;;18.10;89.00;;;;;;5013640;28;20481;-55
2022/06/26 09:20:05;;;;;;;9.02;1.90;;;18.20;87.70;;;;;;5013459;28;20046;-51
2022/06/26 09:22:31;;;;;;;9.25;1.77;;;18.30;88.10;;;;;;5013619;28;20052;-49
2022/06/26 09:25:00;;;;;;;8.57;1.90;;;18.40;88.40;;;;;;5008859;28;20038;-55
2022/06/26 09:27:27;;;;;;;11.07;1.60;;;18.50;87.30;;;;;;5013491;28;20038;-52
2022/06/26 09:29:54;;;;;;;8.00;2.05;;;18.50;87.20;;;;;;5013942;28;20046;-50
2022/06/26 09:32:22;;;;;;;7.28;2.05;;;18.60;87.60;;;;;;5017006;28;20378;-52
2022/06/26 09:34:48;;;;;;;7.75;1.65;;;18.70;85.20;;;;;;5015844;28;20046;-53
2022/06/26 09:37:15;;;;;;;6.20;1.40;;;18.60;84.00;;;;;;5015291;28;20417;-53
2022/06/26 09:40:02;;;;;;;11.35;2.75;;;18.60;84.70;;;;;;5017028;28;20078;-50
2022/06/26 09:42:29;;;;;;;5.18;1.40;;;18.70;84.90;;;;;;5017523;28;20042;-53
2022/06/26 09:44:57;;;;;;;7.72;2.05;;;18.70;81.30;;;;;;5017135;28;20390;-50
2022/06/26 09:47:24;;;;;;;6.75;1.55;;;18.80;80.60;;;;;;5016991;28;20041;-52
2022/06/26 09:49:54;;;;;;;5.72;1.35;;;18.80;80.50;;;;;;5016886;28;20516;-51
2022/06/26 09:52:21;;;;;;;6.47;1.42;;;18.90;81.30;;;;;;5016957;28;20052;-52
2022/06/26 09:54:48;;;;;;;5.90;1.40;;;19.00;82.40;;;;;;5016613;28;20045;-52
2022/06/26 09:57:14;;;;;;;7.30;1.50;;;19.00;81.70;;;;;;5016760;28;20046;-50
2022/06/26 09:59:41;;;;;;;7.63;2.05;;;19.00;81.70;;;;;;5016716;28;20038;-54
2022/06/26 10:07:39;;;;;;;;;;;19.00;80.30;;;;;;5017085;28;20484;-52
2022/06/26 10:10:05;;;;;;;7.28;1.55;;;19.00;81.30;;;;;;5016671;28;19952;-49
2022/06/26 10:12:32;;;;;;;8.98;1.70;;;19.10;81.90;;;;;;5016548;28;20048;-54
2022/06/26 10:14:59;;;;;;;5.55;1.33;;;19.30;81.60;;;;;;5016370;28;20096;-51
2022/06/26 10:17:26;;;;;;;4.70;1.33;;;19.50;81.10;;;;;;5016532;28;20053;-49
2022/06/26 10:19:53;;;;;;;6.07;1.40;;;19.70;80.20;;;;;;5029239;28;20045;-50
2022/06/26 10:22:19;;;;;;;5.15;1.50;;;19.90;79.50;;;;;;5016464;28;20038;-50
2022/06/26 10:24:51;;;;;;;5.63;1.30;;;20.10;79.20;;;;;;5017486;28;20046;-48
2022/06/26 10:27:17;;;;;;;4.55;1.30;;;20.20;75.50;;;;;;5018305;28;20115;-52
2022/06/26 10:29:44;;;;;;;4.80;1.20;;;20.20;73.20;;;;;;5017272;28;20049;-56
2022/06/26 10:32:11;;;;;;;7.50;1.30;;;20.20;75.00;;;;;;5016703;28;20041;-52
2022/06/26 10:34:38;;;;;;;5.38;1.60;;;20.20;75.60;;;;;;5016070;28;20117;-51
2022/06/26 10:37:05;;;;;;;4.07;1.20;;;20.30;74.10;;;;;;5010589;28;20383;-54
2022/06/26 10:39:31;;;;;;;7.03;1.58;;;20.30;74.70;;;;;;5016309;28;20041;-46
2022/06/26 10:44:49;;;;;;;;;;;20.40;72.90;;;;;;5016275;28;20046;-53
2022/06/26 10:47:16;;;;;;;7.18;1.20;;;20.40;72.60;;;;;;5014613;28;19975;-51
2022/06/26 10:49:42;;;;;;;6.55;1.20;;;20.40;73.00;;;;;;5015793;28;20048;-54
2022/06/26 10:52:09;;;;;;;6.28;1.40;;;20.50;73.20;;;;;;5015787;28;20405;-51
2022/06/26 10:54:37;;;;;;;5.45;1.10;;;20.60;73.10;;;;;;5015526;28;20111;-54
2022/06/26 10:57:04;;;;;;;4.20;1.48;;;20.60;71.70;;;;;;5015566;28;20486;-50
2022/06/26 10:59:31;;;;;;;5.82;1.63;;;20.60;73.00;;;;;;5015369;28;20041;-49
2022/06/26 11:01:57;;;;;;;6.40;1.25;;;20.70;72.30;;;;;;5016396;28;20547;-52
2022/06/26 11:04:24;;;;;;;5.75;1.27;;;20.80;72.20;;;;;;5016584;28;20064;-52
2022/06/26 11:06:51;;;;;;;4.15;1.13;;;20.80;72.90;;;;;;5019979;28;20076;-56
2022/06/26 11:09:17;;;;;;;7.22;1.50;;;20.80;70.80;;;;;;5035553;28;20055;-52
2022/06/26 11:11:44;;;;;;;7.30;1.52;;;20.80;72.90;;;;;;5034542;28;20543;-52
2022/06/26 11:14:11;;;;;;;4.95;1.75;;;20.80;72.30;;;;;;5032903;28;20050;-49
2022/06/26 11:16:38;;;;;;;6.30;1.60;;;20.80;73.10;;;;;;5034271;28;20092;-55
2022/06/26 11:19:05;;;;;;;5.75;1.48;;;20.90;73.50;;;;;;5034125;28;20405;-53
2022/06/26 11:21:32;;;;;;;5.57;1.38;;;20.90;72.80;;;;;;5034311;28;20041;-52
2022/06/26 11:23:59;;;;;;;8.18;1.50;;;20.80;73.20;;;;;;5034078;28;20037;-53
2022/06/26 11:26:25;;;;;;;5.25;1.50;;;20.80;72.70;;;;;;5034297;28;20440;-54
2022/06/26 11:28:52;;;;;;;7.55;1.35;;;20.70;72.80;;;;;;5034038;28;20477;-55
2022/06/26 11:31:19;;;;;;;4.82;1.30;;;20.60;72.70;;;;;;5034035;28;20092;-51
2022/06/26 11:33:46;;;;;;;6.35;1.35;;;20.60;73.50;;;;;;5034040;28;20133;-49
2022/06/26 11:36:13;;;;;;;8.25;1.55;;;20.70;74.20;;;;;;5033897;28;20033;-52
2022/06/26 11:38:39;;;;;;;10.98;5.68;;;20.90;72.50;;;;;;5013578;28;20060;-51
2022/06/26 11:41:06;;;;;;;7.35;2.45;;;20.80;72.30;;;;;;5014481;28;20150;-50
2022/06/26 11:43:33;;;;;;;7.63;1.85;;;20.90;70.70;;;;;;5007589;28;20046;-54
2022/06/26 11:46:00;;;;;;;7.60;1.50;;;20.90;71.10;;;;;;5014732;28;20072;-49
2022/06/26 11:48:26;;;;;;;7.43;2.58;;;20.90;71.60;;;;;;5014805;28;20066;-49
2022/06/26 11:50:53;;;;;;;6.50;1.70;;;21.00;71.00;;;;;;5014636;28;20440;-52
2022/06/26 11:53:20;;;;;;;5.57;1.20;;;21.00;69.30;;;;;;5014273;28;20132;-51
2022/06/26 11:55:47;;;;;;;6.47;1.52;;;21.00;68.30;;;;;;5013779;28;20374;-56
2022/06/26 11:58:14;;;;;;;6.45;1.40;;;21.00;69.30;;;;;;5014522;28;20042;-51
2022/06/26 12:00:40;;;;;;;6.50;1.77;;;21.10;70.10;;;;;;5014465;28;20076;-53
2022/06/26 12:03:07;;;;;;;11.45;1.67;;;21.10;70.10;;;;;;5014404;28;20406;-54
2022/06/26 12:05:34;;;;;;;5.90;1.42;;;21.10;70.30;;;;;;5013111;28;20044;-50
2022/06/26 12:08:01;;;;;;;7.22;1.48;;;21.20;70.80;;;;;;5008384;28;20042;-50
2022/06/26 12:10:27;;;;;;;6.30;1.35;;;21.20;69.50;;;;;;5014264;28;20042;-48
2022/06/26 12:12:54;;;;;;;5.45;1.40;;;21.30;69.30;;;;;;5014295;28;20046;-53
2022/06/26 12:15:27;;;;;;;7.47;1.55;;;21.30;69.20;;;;;;5014235;28;20045;-47
2022/06/26 12:17:53;;;;;;;10.77;1.52;;;21.20;69.70;;;;;;5014295;28;20408;-50
2022/06/26 12:20:20;;;;;;;6.00;1.55;;;21.20;69.80;;;;;;5014139;28;20049;-54
2022/06/26 12:22:47;;;;;;;7.20;1.52;;;21.20;70.90;;;;;;5014061;28;20078;-53
2022/06/26 12:25:14;;;;;;;4.38;1.58;;;21.20;70.00;;;;;;5012640;28;20052;-47
2022/06/26 12:27:45;;;;;;;4.53;1.17;;;21.20;67.60;;;;;;5013998;28;20070;-53
2022/06/26 12:30:12;;;;;;;6.82;1.20;;;21.20;67.70;;;;;;5012860;28;20050;-52
2022/06/26 12:32:52;;;;;;;4.80;1.30;;;21.30;68.60;;;;;;5013063;28;20045;-48
2022/06/26 12:35:19;;;;;;;4.80;1.30;;;21.20;66.80;;;;;;5013991;28;20072;-53
2022/06/26 12:37:46;;;;;;;4.68;1.38;;;21.10;68.10;;;;;;5013858;28;20382;-53
2022/06/26 12:40:13;;;;;;;5.95;1.45;;;21.20;68.00;;;;;;5013477;28;20053;-53
2022/06/26 12:42:40;;;;;;;7.25;1.90;;;21.30;67.90;;;;;;5013651;28;20037;-51
2022/06/26 12:45:06;;;;;;;6.68;1.35;;;21.30;68.60;;;;;;5013512;28;20041;-55
2022/06/26 12:47:33;;;;;;;5.22;1.30;;;21.30;67.50;;;;;;5013720;28;20049;-48
2022/06/26 12:50:00;;;;;;;4.63;1.20;;;21.40;67.50;;;;;;5012510;28;20071;-51
2022/06/26 12:52:27;;;;;;;5.55;1.40;;;21.40;68.00;;;;;;5013835;28;20462;-49
2022/06/26 12:54:54;;;;;;;7.85;1.40;;;21.40;67.80;;;;;;5013791;28;20056;-55
2022/06/26 12:57:21;;;;;;;7.53;1.33;;;21.50;67.50;;;;;;5013743;28;20124;-50
2022/06/26 12:59:48;;;;;;;4.47;1.30;;;21.50;68.40;;;;;;5013720;28;20444;-49
2022/06/26 13:02:14;;;;;;;5.13;1.60;;;21.60;66.60;;;;;;5013706;28;20034;-54
2022/06/26 13:04:41;;;;;;;5.85;2.40;;;21.70;67.60;;;;;;5013742;28;20042;-54
2022/06/26 13:07:08;;;;;;;6.85;1.38;;;21.60;68.60;;;;;;5017222;28;20041;-55
2022/06/26 13:09:34;;;;;;;6.75;1.60;;;21.70;68.40;;;;;;5018000;28;20042;-52